createdAt,value
2023-01-11T00:00:04.000Z,96904
2023-01-11T00:05:04.000Z,96895
2023-01-11T00:10:04.000Z,96905
2023-01-11T00:15:04.000Z,96900
2023-01-11T00:20:04.000Z,96897
2023-01-11T00:25:04.000Z,96890
2023-01-11T00:30:04.000Z,96901
2023-01-11T00:35:04.000Z,96886
2023-01-11T00:40:04.000Z,96892
2023-01-11T00:45:04.000Z,96894
2023-01-11T00:50:04.000Z,96906
2023-01-11T00:55:04.000Z,96887
2023-01-11T01:00:04.000Z,96890
2023-01-11T01:05:04.000Z,96877
2023-01-11T01:10:04.000Z,96894
2023-01-11T01:15:04.000Z,96886
2023-01-11T01:20:04.000Z,96870
2023-01-11T01:25:04.000Z,96877
2023-01-11T01:30:04.000Z,96860
2023-01-11T01:35:04.000Z,96868
2023-01-11T01:40:04.000Z,96859
2023-01-11T01:45:04.000Z,96860
2023-01-11T01:50:04.000Z,96875
2023-01-11T01:55:04.000Z,96863
2023-01-11T02:00:04.000Z,96860
2023-01-11T02:05:04.000Z,96857
2023-01-11T02:10:04.000Z,96856
2023-01-11T02:15:04.000Z,96857
2023-01-11T02:20:04.000Z,96865
2023-01-11T02:25:04.000Z,96856
2023-01-11T02:30:04.000Z,96853
2023-01-11T02:35:04.000Z,96837
2023-01-11T02:40:04.000Z,96827
2023-01-11T02:45:04.000Z,96815
2023-01-11T02:50:04.000Z,96811
2023-01-11T02:55:04.000Z,96809
2023-01-11T03:00:04.000Z,96795
2023-01-11T03:05:04.000Z,96801
2023-01-11T03:10:04.000Z,96786
2023-01-11T03:15:04.000Z,96778
2023-01-11T03:20:04.000Z,96783
2023-01-11T03:25:04.000Z,96772
2023-01-11T03:30:04.000Z,96777
2023-01-11T03:35:04.000Z,96765
2023-01-11T03:40:04.000Z,96768
2023-01-11T03:45:04.000Z,96761
2023-01-11T03:50:04.000Z,96760
2023-01-11T03:55:04.000Z,96756
2023-01-11T04:00:04.000Z,96752
2023-01-11T04:05:04.000Z,96759
2023-01-11T04:10:04.000Z,96748
2023-01-11T04:15:04.000Z,96757
2023-01-11T04:20:04.000Z,96743
2023-01-11T04:25:04.000Z,96728
2023-01-11T04:30:04.000Z,96736
2023-01-11T04:35:04.000Z,96728
2023-01-11T04:40:04.000Z,96724
2023-01-11T04:45:04.000Z,96718
2023-01-11T04:50:04.000Z,96731
2023-01-11T04:55:04.000Z,96738
2023-01-11T05:00:04.000Z,96742
2023-01-11T05:05:04.000Z,96740
2023-01-11T05:10:04.000Z,96738
2023-01-11T05:15:04.000Z,96734
2023-01-11T05:20:04.000Z,96726
2023-01-11T05:25:04.000Z,96723
2023-01-11T05:30:04.000Z,96714
2023-01-11T05:35:04.000Z,96711
2023-01-11T05:40:04.000Z,96714
2023-01-11T05:45:04.000Z,96716
2023-01-11T05:50:04.000Z,96719
2023-01-11T05:55:04.000Z,96720
2023-01-11T06:00:04.000Z,96703
2023-01-11T06:05:04.000Z,96707
2023-01-11T06:10:04.000Z,96710
2023-01-11T06:15:04.000Z,96698
2023-01-11T06:20:04.000Z,96708
2023-01-11T06:25:04.000Z,96694
2023-01-11T06:30:04.000Z,96706
2023-01-11T06:35:04.000Z,96706
2023-01-11T06:40:04.000Z,96690
2023-01-11T06:45:04.000Z,96688
2023-01-11T06:50:04.000Z,96679
2023-01-11T06:55:04.000Z,96691
2023-01-11T07:00:04.000Z,96698
2023-01-11T07:05:04.000Z,96694
2023-01-11T07:10:04.000Z,96698
2023-01-11T07:15:04.000Z,96690
2023-01-11T07:20:04.000Z,96692
2023-01-11T07:25:04.000Z,96684
2023-01-11T07:30:04.000Z,96690
2023-01-11T07:35:04.000Z,96680
2023-01-11T07:40:04.000Z,96692
2023-01-11T07:45:04.000Z,96695
2023-01-11T07:50:04.000Z,96696
2023-01-11T07:55:04.000Z,96701
2023-01-11T08:00:04.000Z,96699
2023-01-11T08:05:04.000Z,96718
2023-01-11T08:10:04.000Z,96713
2023-01-11T08:15:04.000Z,96722
2023-01-11T08:20:04.000Z,96716
2023-01-11T08:25:04.000Z,96711
2023-01-11T08:30:04.000Z,96714
2023-01-11T08:35:04.000Z,96711
2023-01-11T08:40:04.000Z,96709
2023-01-11T08:45:04.000Z,96708
2023-01-11T08:50:04.000Z,96717
2023-01-11T08:55:04.000Z,96717
2023-01-11T09:00:04.000Z,96719
2023-01-11T09:05:04.000Z,96715
2023-01-11T09:10:04.000Z,96710
2023-01-11T09:15:04.000Z,96724
2023-01-11T09:20:04.000Z,96719
2023-01-11T09:25:04.000Z,96716
2023-01-11T09:30:04.000Z,96709
2023-01-11T09:35:04.000Z,96719
2023-01-11T09:40:04.000Z,96725
2023-01-11T09:45:04.000Z,96719
2023-01-11T09:50:04.000Z,96711
2023-01-11T09:55:04.000Z,96713
2023-01-11T10:00:04.000Z,96713
2023-01-11T10:05:04.000Z,96711
2023-01-11T10:18:34.000Z,96711
2023-01-11T10:20:04.000Z,96711
2023-01-11T10:25:04.000Z,96706
2023-01-11T10:30:04.000Z,96690
2023-01-11T10:35:04.000Z,96691
2023-01-11T10:40:04.000Z,96690
2023-01-11T10:45:04.000Z,96678
2023-01-11T10:50:04.000Z,96672
2023-01-11T10:55:04.000Z,96680
2023-01-11T11:00:04.000Z,96684
2023-01-11T11:05:04.000Z,96681
2023-01-11T11:10:04.000Z,96674
2023-01-11T11:15:04.000Z,96678
2023-01-11T11:20:04.000Z,96671
2023-01-11T11:25:04.000Z,96660
2023-01-11T11:30:04.000Z,96667
2023-01-11T11:35:04.000Z,96669
2023-01-11T11:40:04.000Z,96662
2023-01-11T11:45:04.000Z,96664
2023-01-11T11:50:04.000Z,96652
2023-01-11T11:55:04.000Z,96655
2023-01-11T12:00:04.000Z,96656
2023-01-11T12:05:04.000Z,96657
2023-01-11T12:10:04.000Z,96657
2023-01-11T12:15:04.000Z,96648
2023-01-11T12:20:04.000Z,96656
2023-01-11T12:25:04.000Z,96658
2023-01-11T12:30:04.000Z,96642
2023-01-11T12:35:04.000Z,96643
2023-01-11T12:40:04.000Z,96644
2023-01-11T12:45:04.000Z,96649
2023-01-11T12:50:04.000Z,96653
2023-01-11T12:55:04.000Z,96657
2023-01-11T13:00:04.000Z,96654
2023-01-11T13:05:04.000Z,96648
2023-01-11T13:10:04.000Z,96641
2023-01-11T13:15:04.000Z,96641
2023-01-11T13:20:04.000Z,96645
2023-01-11T13:25:04.000Z,96652
2023-01-11T13:30:04.000Z,96657
2023-01-11T13:35:04.000Z,96656
2023-01-11T13:40:04.000Z,96652
2023-01-11T13:45:04.000Z,96660
2023-01-11T13:50:04.000Z,96662
2023-01-11T13:55:04.000Z,96665
2023-01-11T14:00:04.000Z,96668
2023-01-11T14:05:04.000Z,96674
2023-01-11T14:10:04.000Z,96687
2023-01-11T14:15:04.000Z,96702
2023-01-11T14:20:04.000Z,96707
2023-01-11T14:25:04.000Z,96715
2023-01-11T14:30:04.000Z,96723
2023-01-11T14:35:04.000Z,96713
2023-01-11T14:40:04.000Z,96733
2023-01-11T14:45:04.000Z,96735
2023-01-11T14:50:04.000Z,96723
2023-01-11T14:55:04.000Z,96726
2023-01-11T15:00:04.000Z,96744
2023-01-11T15:05:04.000Z,96740
2023-01-11T15:10:04.000Z,96737
2023-01-11T15:15:04.000Z,96745
2023-01-11T15:20:04.000Z,96752
2023-01-11T15:25:04.000Z,96766
2023-01-11T15:30:05.000Z,96770
2023-01-11T15:35:05.000Z,96794
2023-01-11T15:40:05.000Z,96805
2023-01-11T15:45:05.000Z,96810
2023-01-11T15:50:05.000Z,96810
2023-01-11T15:55:05.000Z,96817
2023-01-11T16:00:05.000Z,96830
2023-01-11T16:05:05.000Z,96844
2023-01-11T16:10:05.000Z,96849
2023-01-11T16:15:05.000Z,96860
2023-01-11T16:20:05.000Z,96872
2023-01-11T16:25:05.000Z,96884
2023-01-11T16:30:05.000Z,96890
2023-01-11T16:35:05.000Z,96882
2023-01-11T16:40:05.000Z,96882
2023-01-11T16:45:05.000Z,96901
2023-01-11T16:50:05.000Z,96916
2023-01-11T16:55:05.000Z,96923
2023-01-11T17:00:05.000Z,96928
2023-01-11T17:05:05.000Z,96938
2023-01-11T17:10:05.000Z,96949
2023-01-11T17:15:05.000Z,96936
2023-01-11T17:20:05.000Z,96944
2023-01-11T17:25:05.000Z,96948
2023-01-11T17:30:05.000Z,96952
2023-01-11T17:35:05.000Z,96960
2023-01-11T17:40:05.000Z,96976
2023-01-11T17:45:05.000Z,96972
2023-01-11T17:50:05.000Z,96987
2023-01-11T17:55:05.000Z,96982
2023-01-11T18:00:05.000Z,96985
2023-01-11T18:05:05.000Z,96987
2023-01-11T18:10:05.000Z,96999
2023-01-11T18:15:05.000Z,97003
2023-01-11T18:20:05.000Z,96997
2023-01-11T18:25:05.000Z,96997
2023-01-11T18:30:05.000Z,96996
2023-01-11T18:35:05.000Z,97010
2023-01-11T18:40:05.000Z,97021
2023-01-11T18:45:05.000Z,97028
2023-01-11T18:50:05.000Z,97041
2023-01-11T18:55:05.000Z,97030
2023-01-11T19:00:05.000Z,97037
2023-01-11T19:05:05.000Z,97037
2023-01-11T19:10:05.000Z,97038
2023-01-11T19:15:05.000Z,97049
2023-01-11T19:20:05.000Z,97039
2023-01-11T19:25:05.000Z,97053
2023-01-11T19:30:05.000Z,97062
2023-01-11T19:35:05.000Z,97069
2023-01-11T19:40:05.000Z,97070
2023-01-11T19:45:05.000Z,97051
2023-01-11T19:50:05.000Z,97063
2023-01-11T19:55:05.000Z,97070
2023-01-11T20:00:05.000Z,97063
2023-01-11T20:05:05.000Z,97070
2023-01-11T20:10:05.000Z,97062
2023-01-11T20:15:05.000Z,97067
2023-01-11T20:20:05.000Z,97069
2023-01-11T20:25:05.000Z,97078
2023-01-11T20:30:05.000Z,97069
2023-01-11T20:35:05.000Z,97086
2023-01-11T20:40:05.000Z,97104
2023-01-11T20:45:05.000Z,97104
2023-01-11T20:50:05.000Z,97097
2023-01-11T20:55:05.000Z,97105
2023-01-11T21:00:05.000Z,97085
2023-01-11T21:05:05.000Z,97110
2023-01-11T21:10:05.000Z,97116
2023-01-11T21:15:05.000Z,97108
2023-01-11T21:20:05.000Z,97107
2023-01-11T21:25:05.000Z,97107
2023-01-11T21:30:05.000Z,97110
2023-01-11T21:35:05.000Z,97117
2023-01-11T21:40:05.000Z,97127
2023-01-11T21:45:05.000Z,97139
2023-01-11T21:50:05.000Z,97138
2023-01-11T21:55:05.000Z,97164
2023-01-11T22:00:05.000Z,97159
2023-01-11T22:05:05.000Z,97149
2023-01-11T22:10:05.000Z,97145
2023-01-11T22:15:05.000Z,97160
2023-01-11T22:20:05.000Z,97160
2023-01-11T22:25:05.000Z,97147
2023-01-11T22:30:05.000Z,97149
2023-01-11T22:35:05.000Z,97155
2023-01-11T22:40:05.000Z,97146
2023-01-11T22:45:05.000Z,97152
2023-01-11T22:50:05.000Z,97176
2023-01-11T22:55:05.000Z,97196
2023-01-11T23:00:05.000Z,97190
2023-01-11T23:05:05.000Z,97168
2023-01-11T23:10:05.000Z,97170
2023-01-11T23:15:05.000Z,97165
2023-01-11T23:20:05.000Z,97151
2023-01-11T23:25:05.000Z,97163
2023-01-11T23:30:05.000Z,97166
2023-01-11T23:35:05.000Z,97167
2023-01-11T23:40:05.000Z,97175
2023-01-11T23:45:05.000Z,97181
2023-01-11T23:50:05.000Z,97181
2023-01-11T23:55:05.000Z,97184
